createdAt,value
2022-12-08T00:01:33.579Z,102470.38
2022-12-08T00:04:05.737Z,102467.78
2022-12-08T00:07:00.860Z,102465.25
2022-12-08T00:10:10.346Z,102472.59
2022-12-08T00:12:47.475Z,102475.53
2022-12-08T00:15:19.024Z,102472.31
2022-12-08T00:17:50.706Z,102470.91
2022-12-08T00:20:20.180Z,102474.09
2022-12-08T00:22:48.716Z,102486.16
2022-12-08T00:25:26.357Z,102478.47
2022-12-08T00:27:57.541Z,102476.13
2022-12-08T00:30:25.957Z,102480.88
2022-12-08T00:33:08.915Z,102476.88
2022-12-08T00:35:43.222Z,102475.38
2022-12-08T00:38:23.241Z,102471.25
2022-12-08T00:40:54.724Z,102471.44
2022-12-08T00:43:23.206Z,102476.06
2022-12-08T00:45:52.881Z,102486.00
2022-12-08T00:48:21.595Z,102477.38
2022-12-08T00:50:49.992Z,102477.63
2022-12-08T00:53:22.357Z,102476.16
2022-12-08T00:55:54.657Z,102477.38
2022-12-08T00:58:23.383Z,102476.81
2022-12-08T01:00:52.040Z,102482.38
2022-12-08T01:03:24.047Z,102484.47
2022-12-08T01:08:52.559Z,102486.88
2022-12-08T01:11:21.750Z,102481.81
2022-12-08T01:13:53.272Z,102480.19
2022-12-08T01:16:26.989Z,102482.06
2022-12-08T01:18:55.989Z,102478.59
2022-12-08T01:21:30.254Z,102470.75
2022-12-08T01:24:04.720Z,102471.59
2022-12-08T01:26:33.287Z,102468.16
2022-12-08T01:29:10.936Z,102473.50
2022-12-08T01:31:42.296Z,102471.03
2022-12-08T01:34:16.156Z,102479.19
2022-12-08T01:36:48.803Z,102474.00
2022-12-08T01:39:20.496Z,102476.03
2022-12-08T01:41:49.531Z,102475.66
2022-12-08T01:44:23.404Z,102482.97
2022-12-08T01:46:54.931Z,102485.91
2022-12-08T01:49:52.133Z,102475.56
2022-12-08T01:55:21.745Z,102481.66
2022-12-08T02:11:42.117Z,102502.25
2022-12-08T02:14:23.889Z,102507.81
2022-12-08T02:18:02.595Z,102513.22
2022-12-08T02:20:54.460Z,102520.53
2022-12-08T02:23:58.927Z,102525.13
2022-12-08T02:27:03.428Z,102534.97
2022-12-08T02:36:56.424Z,102539.66
2022-12-08T02:40:01.772Z,102538.84
2022-12-08T02:43:04.900Z,102536.22
2022-12-08T02:45:50.194Z,102537.06
2022-12-08T02:48:18.560Z,102537.13
2022-12-08T02:50:49.679Z,102540.69
2022-12-08T02:53:20.833Z,102540.75
2022-12-08T02:56:24.059Z,102538.25
2022-12-08T02:59:25.286Z,102544.22
2022-12-08T03:02:12.784Z,102546.56
2022-12-08T03:05:19.308Z,102550.47
2022-12-08T03:07:58.889Z,102558.78
2022-12-08T03:10:27.203Z,102564.25
2022-12-08T03:13:06.965Z,102559.94
2022-12-08T03:15:48.567Z,102567.09
2022-12-08T03:18:20.161Z,102570.81
2022-12-08T03:20:54.752Z,102570.00
2022-12-08T03:23:23.804Z,102577.81
2022-12-08T03:26:24.858Z,102575.94
2022-12-08T03:28:59.142Z,102582.22
2022-12-08T03:31:30.052Z,102587.47
2022-12-08T03:34:08.504Z,102592.78
2022-12-08T03:36:40.087Z,102590.16
2022-12-08T03:39:10.406Z,102590.38
2022-12-08T03:41:44.611Z,102602.91
2022-12-08T03:44:15.336Z,102593.34
2022-12-08T03:46:46.277Z,102591.72
2022-12-08T03:49:14.702Z,102597.97
2022-12-08T03:51:49.359Z,102600.63
2022-12-08T03:54:17.700Z,102595.44
2022-12-08T03:56:46.101Z,102594.69
2022-12-08T03:59:17.432Z,102596.66
2022-12-08T04:01:45.832Z,102605.50
2022-12-08T04:04:14.186Z,102607.31
2022-12-08T04:06:42.794Z,102611.59
2022-12-08T04:09:11.062Z,102610.44
2022-12-08T04:11:39.565Z,102613.03
2022-12-08T04:14:08.174Z,102614.03
2022-12-08T04:16:36.566Z,102615.03
2022-12-08T04:19:04.913Z,102622.06
2022-12-08T04:21:33.246Z,102629.72
2022-12-08T04:24:01.795Z,102627.63
2022-12-08T04:26:30.447Z,102640.38
2022-12-08T04:28:58.864Z,102640.97
2022-12-08T04:31:27.217Z,102642.91
2022-12-08T04:33:55.577Z,102644.16
2022-12-08T04:36:23.912Z,102650.66
2022-12-08T04:38:52.845Z,102646.47
2022-12-08T04:41:23.243Z,102640.56
2022-12-08T04:43:51.631Z,102641.66
2022-12-08T04:46:20.029Z,102640.03
2022-12-08T04:48:48.413Z,102647.22
2022-12-08T04:51:18.682Z,102653.47
2022-12-08T04:53:48.053Z,102655.34
2022-12-08T04:56:20.299Z,102656.31
2022-12-08T04:58:48.713Z,102658.19
2022-12-08T05:01:17.167Z,102661.78
2022-12-08T05:03:45.669Z,102662.75
2022-12-08T05:06:15.460Z,102659.25
2022-12-08T05:08:46.539Z,102663.72
2022-12-08T05:11:15.501Z,102668.09
2022-12-08T05:13:47.005Z,102664.50
2022-12-08T05:16:16.303Z,102667.19
2022-12-08T05:18:45.124Z,102660.16
2022-12-08T05:21:16.087Z,102664.59
2022-12-08T05:23:44.424Z,102662.03
2022-12-08T05:26:12.664Z,102667.38
2022-12-08T05:28:45.441Z,102670.06
2022-12-08T05:31:15.863Z,102676.31
2022-12-08T05:33:45.298Z,102681.59
2022-12-08T05:36:18.666Z,102683.31
2022-12-08T05:38:47.819Z,102678.00
2022-12-08T05:41:21.623Z,102677.16
2022-12-08T05:43:50.439Z,102681.78
2022-12-08T05:46:18.928Z,102677.50
2022-12-08T05:48:50.119Z,102682.81
2022-12-08T05:51:24.407Z,102678.53
2022-12-08T05:53:53.943Z,102682.94
2022-12-08T05:56:23.058Z,102681.16
2022-12-08T05:58:51.883Z,102689.09
2022-12-08T06:01:31.841Z,102689.09
2022-12-08T06:04:02.431Z,102689.13
2022-12-08T06:06:31.457Z,102695.19
2022-12-08T06:08:59.790Z,102696.69
2022-12-08T06:11:30.766Z,102693.16
2022-12-08T06:13:59.675Z,102692.44
2022-12-08T06:16:29.053Z,102690.81
2022-12-08T06:18:58.357Z,102685.59
2022-12-08T06:21:26.717Z,102690.09
2022-12-08T06:23:57.208Z,102693.66
2022-12-08T06:26:25.808Z,102690.16
2022-12-08T06:28:54.472Z,102697.22
2022-12-08T06:31:25.724Z,102695.47
2022-12-08T06:33:55.983Z,102703.41
2022-12-08T06:36:28.663Z,102698.16
2022-12-08T06:38:57.568Z,102713.16
2022-12-08T06:41:26.030Z,102714.94
2022-12-08T06:43:58.354Z,102721.00
2022-12-08T06:46:26.654Z,102720.06
2022-12-08T06:48:55.207Z,102719.97
2022-12-08T06:51:26.614Z,102717.19
2022-12-08T06:53:54.967Z,102715.44
2022-12-08T06:56:25.403Z,102719.91
2022-12-08T06:58:53.716Z,102716.56
2022-12-08T07:01:22.281Z,102727.22
2022-12-08T07:03:50.785Z,102728.16
2022-12-08T07:06:25.034Z,102736.94
2022-12-08T07:08:53.840Z,102730.66
2022-12-08T07:11:22.802Z,102726.25
2022-12-08T07:13:51.982Z,102725.44
2022-12-08T07:16:20.392Z,102722.88
2022-12-08T07:18:48.659Z,102720.34
2022-12-08T07:21:17.693Z,102712.47
2022-12-08T07:23:56.017Z,102719.47
2022-12-08T07:26:27.695Z,102719.47
2022-12-08T07:28:57.729Z,102716.03
2022-12-08T07:31:27.619Z,102715.31
2022-12-08T07:33:59.687Z,102715.38
2022-12-08T07:36:31.951Z,102717.25
2022-12-08T07:39:01.055Z,102715.56
2022-12-08T07:41:29.401Z,102713.88
2022-12-08T07:43:58.382Z,102713.91
2022-12-08T07:46:27.661Z,102714.75
2022-12-08T07:48:56.550Z,102712.94
2022-12-08T07:51:26.059Z,102710.25
2022-12-08T07:53:55.145Z,102719.09
2022-12-08T07:56:24.746Z,102706.84
2022-12-08T07:58:52.981Z,102708.66
2022-12-08T08:01:24.421Z,102702.56
2022-12-08T08:03:53.416Z,102716.72
2022-12-08T08:06:21.819Z,102712.34
2022-12-08T08:08:50.023Z,102711.50
2022-12-08T08:11:21.276Z,102706.22
2022-12-08T08:13:52.873Z,102708.78
2022-12-08T08:16:21.726Z,102710.38
2022-12-08T08:18:52.140Z,102715.56
2022-12-08T08:21:44.243Z,102711.19
2022-12-08T08:24:10.242Z,102707.84
2022-12-08T08:26:41.011Z,102707.91
2022-12-08T08:29:09.365Z,102702.72
2022-12-08T08:31:37.841Z,102708.03
2022-12-08T08:34:07.142Z,102706.22
2022-12-08T08:36:36.020Z,102703.31
2022-12-08T08:39:05.433Z,102707.28
2022-12-08T08:41:34.175Z,102707.72
2022-12-08T08:44:02.645Z,102710.97
2022-12-08T08:46:30.937Z,102722.47
2022-12-08T08:48:59.313Z,102711.22
2022-12-08T08:51:27.573Z,102714.94
2022-12-08T08:53:55.837Z,102716.00
2022-12-08T08:56:24.351Z,102712.66
2022-12-08T08:58:54.098Z,102706.59
2022-12-08T09:01:29.008Z,102710.22
2022-12-08T09:03:58.042Z,102715.53
2022-12-08T09:06:26.835Z,102710.31
2022-12-08T09:08:55.280Z,102720.03
2022-12-08T09:11:24.319Z,102726.25
2022-12-08T09:13:54.259Z,102730.59
2022-12-08T09:16:23.755Z,102741.13
2022-12-08T09:18:52.186Z,102728.63
2022-12-08T09:21:27.019Z,102731.72
2022-12-08T09:23:57.621Z,102730.34
2022-12-08T09:26:27.326Z,102730.03
2022-12-08T09:28:56.579Z,102736.31
2022-12-08T09:31:25.827Z,102732.13
2022-12-08T09:33:54.382Z,102733.34
2022-12-08T09:36:23.426Z,102738.00
2022-12-08T09:38:53.064Z,102730.22
2022-12-08T09:41:30.832Z,102738.22
2022-12-08T09:44:16.439Z,102731.31
2022-12-08T09:46:44.972Z,102726.19
2022-12-08T09:49:17.863Z,102723.63
2022-12-08T09:51:49.368Z,102727.16
2022-12-08T09:54:19.718Z,102727.25
2022-12-08T09:56:50.931Z,102729.97
2022-12-08T09:59:31.654Z,102724.75
2022-12-08T10:02:02.193Z,102726.63
2022-12-08T10:04:34.927Z,102725.81
2022-12-08T10:07:36.793Z,102728.50
2022-12-08T10:10:51.695Z,102738.13
2022-12-08T10:13:56.422Z,102735.38
2022-12-08T10:16:40.212Z,102740.75
2022-12-08T10:19:20.149Z,102740.84
2022-12-08T10:21:48.723Z,102740.97
2022-12-08T10:24:42.432Z,102739.25
2022-12-08T10:27:14.309Z,102731.41
2022-12-08T10:29:42.831Z,102729.72
2022-12-08T10:32:23.761Z,102728.00
2022-12-08T10:35:05.132Z,102733.28
2022-12-08T10:37:34.785Z,102742.91
2022-12-08T10:40:15.216Z,102741.00
2022-12-08T10:45:45.865Z,102733.19
2022-12-08T10:48:20.260Z,102731.50
2022-12-08T10:50:56.608Z,102735.91
2022-12-08T10:53:28.945Z,102734.25
2022-12-08T10:56:02.739Z,102734.25
2022-12-08T10:58:34.770Z,102737.84
2022-12-08T11:01:25.896Z,102737.88
2022-12-08T11:03:58.830Z,102728.13
2022-12-08T11:06:37.099Z,102737.59
2022-12-08T11:09:23.055Z,102731.41
2022-12-08T11:12:07.661Z,102728.84
2022-12-08T11:15:03.995Z,102722.81
2022-12-08T11:17:44.798Z,102719.38
2022-12-08T11:20:13.000Z,102715.94
2022-12-08T11:22:43.941Z,102723.88
2022-12-08T11:25:19.264Z,102721.28
2022-12-08T11:27:50.660Z,102718.72
2022-12-08T11:30:29.100Z,102711.69
2022-12-08T11:33:02.477Z,102706.47
2022-12-08T11:35:38.822Z,102704.72
2022-12-08T11:38:22.969Z,102692.41
2022-12-08T11:41:00.077Z,102699.47
2022-12-08T11:43:45.621Z,102695.13
2022-12-08T11:46:20.971Z,102689.94
2022-12-08T11:48:49.570Z,102684.75
2022-12-08T11:51:45.320Z,102681.19
2022-12-08T11:54:25.394Z,102682.91
2022-12-08T11:56:59.869Z,102681.13
2022-12-08T11:59:39.251Z,102689.00
2022-12-08T12:02:18.353Z,102674.94
2022-12-08T12:06:03.325Z,102674.88
2022-12-08T12:08:27.907Z,102670.41
2022-12-08T12:11:34.339Z,102675.63
2022-12-08T12:14:13.203Z,102682.59
2022-12-08T12:17:15.246Z,102683.41
2022-12-08T12:19:43.151Z,102686.91
2022-12-08T12:22:23.992Z,102690.41
2022-12-08T12:24:54.215Z,102693.03
2022-12-08T12:27:33.628Z,102680.69
2022-12-08T12:30:07.802Z,102690.31
2022-12-08T12:32:55.565Z,102681.50
2022-12-08T12:35:58.144Z,102690.22
2022-12-08T12:38:53.278Z,102685.78
2022-12-08T12:41:47.575Z,102684.84
2022-12-08T12:44:16.693Z,102683.09
2022-12-08T12:46:49.235Z,102679.53
2022-12-08T12:49:41.581Z,102679.44
2022-12-08T12:52:27.226Z,102684.59
2022-12-08T12:54:58.558Z,102687.22
2022-12-08T12:57:38.243Z,102688.88
2022-12-08T13:00:09.445Z,102689.72
2022-12-08T13:02:38.903Z,102686.16
2022-12-08T13:05:18.122Z,102686.03
2022-12-08T13:08:09.547Z,102681.59
2022-12-08T13:10:49.578Z,102687.72
2022-12-08T13:13:27.539Z,102699.16
2022-12-08T13:16:22.274Z,102702.50
2022-12-08T13:21:39.824Z,102707.69
2022-12-08T13:28:00.919Z,102709.09
2022-12-08T13:30:54.012Z,102706.38
2022-12-08T13:33:27.659Z,102703.66
2022-12-08T13:36:34.054Z,102709.72
2022-12-08T13:39:04.127Z,102707.88
2022-12-08T13:41:49.253Z,102699.91
2022-12-08T13:47:33.826Z,102706.97
2022-12-08T13:50:55.697Z,102705.19
2022-12-08T13:58:49.793Z,102697.00
2022-12-08T14:01:24.044Z,102707.66
2022-12-08T14:04:33.749Z,102706.81
2022-12-08T14:06:49.872Z,102702.28
2022-12-08T14:09:23.982Z,102699.56
2022-12-08T14:12:04.559Z,102704.81
2022-12-08T14:15:10.872Z,102706.66
2022-12-08T14:17:29.752Z,102711.94
2022-12-08T14:20:25.193Z,102712.78
2022-12-08T14:22:54.537Z,102712.81
2022-12-08T14:25:25.202Z,102718.91
2022-12-08T14:28:02.675Z,102723.25
2022-12-08T14:30:34.001Z,102722.28
2022-12-08T14:33:04.892Z,102709.97
2022-12-08T14:35:38.389Z,102715.19
2022-12-08T14:38:27.286Z,102712.50
2022-12-08T14:41:10.005Z,102716.97
2022-12-08T14:43:38.335Z,102703.03
2022-12-08T14:46:21.696Z,102716.31
2022-12-08T14:48:50.118Z,102718.03
2022-12-08T14:51:24.474Z,102723.19
2022-12-08T14:54:01.319Z,102719.66
2022-12-08T14:56:56.657Z,102720.66
2022-12-08T14:59:32.607Z,102716.25
2022-12-08T15:02:29.489Z,102712.66
2022-12-08T15:05:11.972Z,102721.41
2022-12-08T15:08:07.314Z,102715.31
2022-12-08T15:10:52.077Z,102713.66
2022-12-08T15:13:26.218Z,102708.38
2022-12-08T15:16:31.563Z,102716.16
2022-12-08T15:19:29.330Z,102709.91
2022-12-08T15:22:00.756Z,102715.97
2022-12-08T15:24:32.016Z,102714.13
2022-12-08T15:27:00.949Z,102709.66
2022-12-08T15:29:31.207Z,102707.91
2022-12-08T15:32:02.372Z,102708.00
2022-12-08T15:34:32.472Z,102708.06
2022-12-08T15:37:00.827Z,102705.41
2022-12-08T15:39:38.112Z,102709.66
2022-12-08T15:42:13.295Z,102720.22
2022-12-08T15:44:44.908Z,102719.47
2022-12-08T15:47:23.201Z,102722.97
2022-12-08T15:49:56.088Z,102724.69
2022-12-08T15:52:26.235Z,102726.41
2022-12-08T15:54:55.655Z,102730.78
2022-12-08T16:04:19.904Z,102720.03
2022-12-08T16:09:21.992Z,102717.22
2022-12-08T16:12:10.122Z,102723.31
2022-12-08T16:15:47.339Z,102728.47
2022-12-08T16:17:29.862Z,102723.09
2022-12-08T16:19:58.540Z,102726.50
2022-12-08T16:22:52.741Z,102719.38
2022-12-08T16:25:20.000Z,102716.72
2022-12-08T16:28:29.591Z,102715.78
2022-12-08T16:33:22.025Z,102713.16
2022-12-08T16:35:50.364Z,102718.50
2022-12-08T16:38:18.728Z,102714.03
2022-12-08T16:41:08.066Z,102720.03
2022-12-08T16:43:36.817Z,102719.03
2022-12-08T16:46:05.846Z,102719.81
2022-12-08T16:48:34.197Z,102720.59
2022-12-08T16:51:05.271Z,102723.16
2022-12-08T16:53:33.477Z,102735.47
2022-12-08T16:56:01.830Z,102731.91
2022-12-08T16:58:30.931Z,102735.38
2022-12-08T17:00:59.266Z,102732.69
2022-12-08T17:03:27.658Z,102735.28
2022-12-08T17:05:55.899Z,102734.41
2022-12-08T17:08:24.201Z,102730.78
2022-12-08T17:11:08.072Z,102728.06
2022-12-08T17:13:42.391Z,102733.25
2022-12-08T17:16:14.519Z,102737.63
2022-12-08T17:18:43.095Z,102749.94
2022-12-08T17:21:13.194Z,102745.41
2022-12-08T17:23:42.363Z,102756.88
2022-12-08T17:26:11.729Z,102742.63
2022-12-08T17:28:59.625Z,102746.94
2022-12-08T17:31:30.370Z,102750.34
2022-12-08T17:34:11.895Z,102744.06
2022-12-08T17:36:40.166Z,102751.00
2022-12-08T17:39:13.459Z,102735.88
2022-12-08T17:41:46.251Z,102734.84
2022-12-08T17:44:17.212Z,102737.38
2022-12-08T17:46:52.143Z,102747.84
2022-12-08T17:49:26.760Z,102750.34
2022-12-08T17:51:58.503Z,102741.41
2022-12-08T17:54:27.673Z,102750.00
2022-12-08T17:56:59.377Z,102749.88
2022-12-08T17:59:29.398Z,102753.19
2022-12-08T18:01:58.618Z,102753.03
2022-12-08T18:04:27.865Z,102752.81
2022-12-08T18:06:56.426Z,102756.06
2022-12-08T18:09:24.776Z,102744.38
2022-12-08T18:11:53.196Z,102744.22
2022-12-08T18:14:21.751Z,102743.19
2022-12-08T18:16:50.243Z,102748.34
2022-12-08T18:19:19.151Z,102747.28
2022-12-08T18:21:47.559Z,102737.34
2022-12-08T18:24:24.655Z,102738.88
2022-12-08T18:26:53.823Z,102732.53
2022-12-08T18:29:23.554Z,102737.59
2022-12-08T18:31:52.698Z,102737.31
2022-12-08T18:34:21.523Z,102734.41
2022-12-08T18:36:50.056Z,102727.22
2022-12-08T18:39:37.065Z,102716.41
2022-12-08T18:42:23.715Z,102719.91
2022-12-08T18:45:00.073Z,102719.91
2022-12-08T18:47:28.689Z,102720.75
2022-12-08T18:49:57.261Z,102719.78
2022-12-08T18:52:31.573Z,102716.25
2022-12-08T18:55:08.064Z,102716.34
2022-12-08T18:57:39.620Z,102706.69
2022-12-08T19:00:12.971Z,102707.69
2022-12-08T19:02:42.276Z,102704.19
2022-12-08T19:05:18.963Z,102697.16
2022-12-08T19:08:04.103Z,102691.97
2022-12-08T19:10:38.796Z,102689.34
2022-12-08T19:13:08.785Z,102679.59
2022-12-08T19:15:37.184Z,102677.75
2022-12-08T19:18:05.844Z,102677.66
2022-12-08T19:20:34.148Z,102666.16
2022-12-08T19:23:02.396Z,102667.03
2022-12-08T19:25:34.343Z,102663.53
2022-12-08T19:28:02.701Z,102656.41
2022-12-08T19:30:34.366Z,102660.81
2022-12-08T19:35:34.152Z,102653.75
2022-12-08T19:38:05.619Z,102645.69
2022-12-08T19:40:51.816Z,102646.53
2022-12-08T19:44:01.229Z,102631.31
2022-12-08T19:46:30.120Z,102631.31
2022-12-08T19:48:59.319Z,102625.19
2022-12-08T19:51:30.686Z,102610.25
2022-12-08T19:54:02.129Z,102616.44
2022-12-08T19:56:32.856Z,102610.25
2022-12-08T19:59:01.356Z,102611.06
2022-12-08T20:01:30.726Z,102618.00
2022-12-08T20:04:02.185Z,102606.31
2022-12-08T20:06:30.279Z,102610.66
2022-12-08T20:09:01.566Z,102614.09
2022-12-08T20:11:32.629Z,102606.03
2022-12-08T20:14:01.347Z,102600.72
2022-12-08T20:17:01.273Z,102592.69
2022-12-08T20:19:30.127Z,102581.19
2022-12-08T20:21:58.597Z,102569.66
2022-12-08T20:25:03.738Z,102568.69
2022-12-08T20:27:34.369Z,102578.41
2022-12-08T20:30:02.723Z,102581.00
2022-12-08T20:32:31.225Z,102562.38
2022-12-08T20:34:59.842Z,102562.25
2022-12-08T20:37:28.418Z,102548.88
2022-12-08T20:39:56.848Z,102547.03
2022-12-08T20:42:25.312Z,102550.50
2022-12-08T20:44:53.979Z,102548.66
2022-12-08T20:47:22.509Z,102537.97
2022-12-08T20:49:51.506Z,102534.34
2022-12-08T20:52:20.146Z,102524.47
2022-12-08T20:54:48.675Z,102526.16
2022-12-08T20:57:17.010Z,102520.00
2022-12-08T20:59:45.608Z,102526.16
2022-12-08T21:02:14.015Z,102527.03
2022-12-08T21:04:42.919Z,102517.28
2022-12-08T21:07:11.549Z,102505.75
2022-12-08T21:09:39.847Z,102500.31
2022-12-08T21:12:08.751Z,102504.69
2022-12-08T21:14:37.377Z,102494.88
2022-12-08T21:17:06.136Z,102485.13
2022-12-08T21:19:34.816Z,102480.63
2022-12-08T21:22:03.418Z,102477.84
2022-12-08T21:24:34.360Z,102476.00
2022-12-08T21:27:03.270Z,102470.69
2022-12-08T21:29:31.902Z,102473.25
2022-12-08T21:32:01.497Z,102465.22
2022-12-08T21:34:34.963Z,102467.03
2022-12-08T21:37:03.797Z,102450.16
2022-12-08T21:39:32.836Z,102461.59
2022-12-08T21:42:22.722Z,102458.94
2022-12-08T21:44:51.548Z,102455.25
2022-12-08T21:47:20.188Z,102460.44
2022-12-08T21:49:51.175Z,102459.41
2022-12-08T21:52:19.947Z,102462.97
2022-12-08T21:54:50.348Z,102462.84
2022-12-08T21:57:18.968Z,102465.50
2022-12-08T21:59:47.459Z,102457.53
2022-12-08T22:02:22.344Z,102450.50
2022-12-08T22:04:51.532Z,102453.16
2022-12-08T22:07:21.685Z,102444.38
2022-12-08T22:09:50.245Z,102440.81
2022-12-08T22:12:18.972Z,102439.94
2022-12-08T22:14:47.924Z,102439.06
2022-12-08T22:17:17.590Z,102438.19
2022-12-08T22:19:46.437Z,102439.13
2022-12-08T22:22:14.766Z,102435.59
2022-12-08T22:24:43.275Z,102433.75
2022-12-08T22:27:11.635Z,102430.22
2022-12-08T22:29:39.978Z,102431.16
2022-12-08T22:32:08.243Z,102429.34
2022-12-08T22:34:36.757Z,102425.78
2022-12-08T22:37:05.244Z,102420.38
2022-12-08T22:39:33.699Z,102417.91
2022-12-08T22:42:01.939Z,102425.09
2022-12-08T22:44:30.669Z,102422.44
2022-12-08T22:46:58.973Z,102432.13
2022-12-08T22:49:27.640Z,102423.34
2022-12-08T22:51:55.977Z,102418.16
2022-12-08T22:54:24.359Z,102426.13
2022-12-08T22:56:52.756Z,102420.88
2022-12-08T22:59:21.028Z,102414.69
2022-12-08T23:01:49.427Z,102411.16
2022-12-08T23:04:18.511Z,102424.50
2022-12-08T23:06:46.995Z,102416.63
2022-12-08T23:09:15.929Z,102399.94
2022-12-08T23:11:44.893Z,102407.16
2022-12-08T23:14:13.124Z,102400.16
2022-12-08T23:16:47.206Z,102407.41
2022-12-08T23:19:16.131Z,102403.13
2022-12-08T23:21:44.472Z,102397.94
2022-12-08T23:24:13.025Z,102387.44
2022-12-08T23:26:43.864Z,102385.69
2022-12-08T23:29:12.202Z,102387.63
2022-12-08T23:31:59.162Z,102391.34
2022-12-08T23:34:33.648Z,102382.84
2022-12-08T23:37:02.183Z,102391.06
2022-12-08T23:39:35.663Z,102387.63
2022-12-08T23:42:06.685Z,102387.00
2022-12-08T23:44:38.090Z,102380.13
2022-12-08T23:47:06.624Z,102376.69
2022-12-08T23:52:34.003Z,102376.53
